createdAt,value
2018-12-30T00:00:27.470Z,1008.88
2018-12-30T00:01:27.466Z,1008.84
2018-12-30T00:02:27.475Z,1009.01
2018-12-30T00:03:27.484Z,1009.03
2018-12-30T00:04:27.577Z,1009.01
2018-12-30T00:05:27.479Z,1008.99
2018-12-30T00:06:25.601Z,1009.06
2018-12-30T00:07:27.458Z,1009.01
2018-12-30T00:08:27.518Z,1009.11
2018-12-30T00:09:27.483Z,1009.30
2018-12-30T00:10:27.508Z,1009.19
2018-12-30T00:11:27.977Z,1009.15
2018-12-30T00:12:26.968Z,1009.19
2018-12-30T00:13:26.991Z,1009.05
2018-12-30T00:14:26.966Z,1009.30
2018-12-30T00:15:26.968Z,1009.28
2018-12-30T00:16:27.034Z,1009.20
2018-12-30T00:17:29.005Z,1009.28
2018-12-30T00:18:34.612Z,1009.34
2018-12-30T00:19:42.291Z,1009.35
2018-12-30T00:21:35.630Z,1009.47
2018-12-30T00:22:37.338Z,1009.78
2018-12-30T00:23:44.484Z,1009.47
2018-12-30T00:24:43.271Z,1009.50
2018-12-30T00:25:37.448Z,1009.47
2018-12-30T00:26:37.402Z,1009.45
2018-12-30T00:27:43.219Z,1009.59
2018-12-30T00:28:37.486Z,1009.59
2018-12-30T00:29:43.195Z,1009.54
2018-12-30T00:30:44.146Z,1009.52
2018-12-30T00:31:43.180Z,1009.74
2018-12-30T00:32:43.154Z,1009.51
2018-12-30T00:33:44.206Z,1009.50
2018-12-30T00:34:43.089Z,1009.90
2018-12-30T00:35:43.098Z,1009.57
2018-12-30T00:36:43.046Z,1009.65
2018-12-30T00:37:43.055Z,1009.70
2018-12-30T00:38:44.416Z,1009.77
2018-12-30T00:39:45.897Z,1009.85
2018-12-30T00:40:43.091Z,1009.99
2018-12-30T00:41:44.969Z,1009.86
2018-12-30T00:42:36.917Z,1009.87
2018-12-30T00:43:44.045Z,1009.94
2018-12-30T00:44:42.968Z,1009.87
2018-12-30T00:45:37.045Z,1010.04
2018-12-30T00:46:42.917Z,1009.98
2018-12-30T00:47:35.345Z,1009.99
2018-12-30T00:48:45.183Z,1009.98
2018-12-30T00:49:42.904Z,1010.03
2018-12-30T00:50:37.116Z,1010.05
2018-12-30T00:51:42.857Z,1010.03
2018-12-30T00:52:37.152Z,1010.14
2018-12-30T00:53:37.142Z,1010.07
2018-12-30T00:54:37.136Z,1010.34
2018-12-30T00:55:37.134Z,1010.09
2018-12-30T00:56:37.197Z,1010.29
2018-12-30T00:57:37.143Z,1010.28
2018-12-30T00:58:37.140Z,1010.41
2018-12-30T00:59:37.142Z,1010.51
2018-12-30T01:00:37.135Z,1010.24
2018-12-30T01:01:37.164Z,1010.34
2018-12-30T01:02:37.131Z,1010.53
2018-12-30T01:03:37.143Z,1010.33
2018-12-30T01:04:37.135Z,1010.62
2018-12-30T01:05:37.215Z,1010.42
2018-12-30T01:06:36.632Z,1010.50
2018-12-30T01:07:36.646Z,1010.53
2018-12-30T01:08:36.669Z,1010.52
2018-12-30T01:09:36.652Z,1010.53
2018-12-30T01:10:36.633Z,1010.62
2018-12-30T01:11:36.629Z,1010.64
2018-12-30T01:12:36.623Z,1010.70
2018-12-30T01:13:36.638Z,1010.54
2018-12-30T01:14:36.620Z,1010.73
2018-12-30T01:15:36.636Z,1010.67
2018-12-30T01:16:35.037Z,1010.63
2018-12-30T01:17:36.649Z,1010.57
2018-12-30T01:18:36.653Z,1010.61
2018-12-30T01:19:36.664Z,1010.69
2018-12-30T01:20:36.658Z,1010.73
2018-12-30T01:21:36.630Z,1010.79
2018-12-30T01:22:36.630Z,1010.73
2018-12-30T01:23:36.650Z,1010.91
2018-12-30T01:24:36.630Z,1010.84
2018-12-30T01:25:36.631Z,1011.03
2018-12-30T01:26:36.669Z,1010.78
2018-12-30T01:27:36.618Z,1010.81
2018-12-30T01:28:36.670Z,1010.87
2018-12-30T01:29:36.629Z,1010.80
2018-12-30T01:30:36.630Z,1011.02
2018-12-30T01:31:36.627Z,1010.96
2018-12-30T01:32:36.633Z,1011.11
2018-12-30T01:33:36.667Z,1011.10
2018-12-30T01:34:36.629Z,1011.09
2018-12-30T01:35:36.627Z,1011.27
2018-12-30T01:36:36.634Z,1011.35
2018-12-30T01:37:36.620Z,1011.05
2018-12-30T01:38:36.638Z,1011.46
2018-12-30T01:39:36.670Z,1011.36
2018-12-30T01:40:36.630Z,1011.39
2018-12-30T01:41:36.623Z,1011.17
2018-12-30T01:42:36.627Z,1011.29
2018-12-30T01:43:36.639Z,1011.18
2018-12-30T01:44:36.628Z,1011.41
2018-12-30T01:45:36.656Z,1011.25
2018-12-30T01:46:36.617Z,1011.18
2018-12-30T01:47:36.630Z,1011.34
2018-12-30T01:48:36.636Z,1011.22
2018-12-30T01:49:36.626Z,1011.39
2018-12-30T01:50:36.628Z,1011.49
2018-12-30T01:51:36.663Z,1011.41
2018-12-30T01:52:36.626Z,1011.33
2018-12-30T01:53:36.640Z,1011.35
2018-12-30T01:54:35.628Z,1011.32
2018-12-30T01:55:36.129Z,1011.51
2018-12-30T01:56:34.635Z,1011.46
2018-12-30T01:57:36.159Z,1011.47
2018-12-30T01:58:36.136Z,1011.35
2018-12-30T01:59:36.126Z,1011.53
2018-12-30T02:00:36.125Z,1011.53
2018-12-30T02:01:36.128Z,1011.64
2018-12-30T02:02:36.127Z,1011.37
2018-12-30T02:03:36.176Z,1011.46
2018-12-30T02:04:36.137Z,1011.49
2018-12-30T02:05:36.154Z,1011.64
2018-12-30T02:06:36.130Z,1011.69
2018-12-30T02:07:36.129Z,1011.57
2018-12-30T02:08:36.165Z,1011.56
2018-12-30T02:09:36.130Z,1011.66
2018-12-30T02:10:36.131Z,1011.62
2018-12-30T02:11:36.152Z,1011.92
2018-12-30T02:12:36.125Z,1011.75
2018-12-30T02:13:36.136Z,1011.80
2018-12-30T02:14:36.170Z,1011.79
2018-12-30T02:15:36.125Z,1011.73
2018-12-30T02:16:36.135Z,1011.86
2018-12-30T02:17:36.128Z,1011.80
2018-12-30T02:18:36.137Z,1011.89
2018-12-30T02:19:34.369Z,1011.89
2018-12-30T02:20:35.389Z,1011.96
2018-12-30T02:21:41.040Z,1011.88
2018-12-30T02:22:37.128Z,1011.93
2018-12-30T02:23:36.133Z,1012.10
2018-12-30T02:24:36.130Z,1011.94
2018-12-30T02:25:36.163Z,1011.69
2018-12-30T02:26:36.128Z,1011.99
2018-12-30T02:27:36.126Z,1012.06
2018-12-30T02:28:36.131Z,1011.93
2018-12-30T02:29:36.128Z,1012.07
2018-12-30T02:30:36.141Z,1012.01
2018-12-30T02:31:36.149Z,1012.03
2018-12-30T02:32:36.128Z,1012.04
2018-12-30T02:33:36.136Z,1012.15
2018-12-30T02:34:36.119Z,1012.14
2018-12-30T02:35:36.132Z,1012.15
2018-12-30T02:36:36.126Z,1012.20
2018-12-30T02:37:36.154Z,1012.31
2018-12-30T02:38:36.137Z,1012.26
2018-12-30T02:39:36.149Z,1012.34
2018-12-30T02:40:36.167Z,1012.22
2018-12-30T02:41:36.145Z,1012.26
2018-12-30T02:42:34.144Z,1012.28
2018-12-30T02:43:35.681Z,1012.32
2018-12-30T02:44:35.658Z,1012.33
2018-12-30T02:45:35.628Z,1012.41
2018-12-30T02:46:35.627Z,1012.44
2018-12-30T02:47:36.044Z,1012.50
2018-12-30T02:48:34.202Z,1012.47
2018-12-30T02:49:35.627Z,1012.46
2018-12-30T02:50:35.654Z,1012.40
2018-12-30T02:51:35.629Z,1012.51
2018-12-30T02:52:36.640Z,1012.49
2018-12-30T02:53:35.639Z,1012.49
2018-12-30T02:54:35.630Z,1012.56
2018-12-30T02:55:35.656Z,1012.61
2018-12-30T02:56:35.616Z,1012.66
2018-12-30T02:57:35.632Z,1012.68
2018-12-30T02:58:35.635Z,1012.60
2018-12-30T02:59:35.650Z,1012.66
2018-12-30T03:00:35.632Z,1012.71
2018-12-30T03:01:35.653Z,1012.71
2018-12-30T03:02:35.627Z,1012.70
2018-12-30T03:03:35.634Z,1012.63
2018-12-30T03:04:35.633Z,1012.58
2018-12-30T03:05:35.627Z,1012.57
2018-12-30T03:06:35.631Z,1012.68
2018-12-30T03:07:35.651Z,1012.56
2018-12-30T03:08:35.634Z,1012.57
2018-12-30T03:09:35.634Z,1012.69
2018-12-30T03:10:35.626Z,1012.63
2018-12-30T03:11:35.629Z,1012.66
2018-12-30T03:12:35.648Z,1012.62
2018-12-30T03:13:35.656Z,1012.56
2018-12-30T03:14:35.630Z,1012.60
2018-12-30T03:15:35.625Z,1012.69
2018-12-30T03:16:35.633Z,1012.71
2018-12-30T03:17:33.771Z,1012.67
2018-12-30T03:18:35.644Z,1012.81
2018-12-30T03:19:35.664Z,1012.75
2018-12-30T03:20:35.635Z,1012.86
2018-12-30T03:21:35.625Z,1012.68
2018-12-30T03:22:35.631Z,1012.76
2018-12-30T03:23:35.637Z,1012.70
2018-12-30T03:24:35.631Z,1012.81
2018-12-30T03:25:35.673Z,1012.81
2018-12-30T03:26:35.637Z,1012.77
2018-12-30T03:27:35.627Z,1012.85
2018-12-30T03:28:35.641Z,1012.77
2018-12-30T03:29:35.630Z,1013.06
2018-12-30T03:30:35.627Z,1012.88
2018-12-30T03:31:35.148Z,1012.90
2018-12-30T03:32:35.130Z,1012.88
2018-12-30T03:33:35.134Z,1012.98
2018-12-30T03:34:35.144Z,1012.94
2018-12-30T03:35:35.126Z,1012.94
2018-12-30T03:36:35.125Z,1012.90
2018-12-30T03:37:35.154Z,1012.95
2018-12-30T03:38:35.134Z,1013.04
2018-12-30T03:39:35.127Z,1012.98
2018-12-30T03:40:35.126Z,1013.01
2018-12-30T03:41:35.127Z,1013.03
2018-12-30T03:42:35.125Z,1012.94
2018-12-30T03:43:35.163Z,1012.98
2018-12-30T03:44:35.125Z,1012.91
2018-12-30T03:45:35.123Z,1013.11
2018-12-30T03:46:35.122Z,1013.07
2018-12-30T03:47:35.122Z,1013.05
2018-12-30T03:48:35.135Z,1013.00
2018-12-30T03:49:35.150Z,1013.18
2018-12-30T03:50:35.139Z,1013.08
2018-12-30T03:51:35.122Z,1013.12
2018-12-30T03:52:35.127Z,1013.16
2018-12-30T03:53:35.131Z,1013.15
2018-12-30T03:54:35.130Z,1013.20
2018-12-30T03:55:35.160Z,1013.26
2018-12-30T03:56:35.126Z,1013.24
2018-12-30T03:57:35.124Z,1013.26
2018-12-30T03:58:35.134Z,1013.21
2018-12-30T03:59:35.122Z,1013.23
2018-12-30T04:00:36.129Z,1013.21
2018-12-30T04:01:35.145Z,1013.27
2018-12-30T04:02:35.125Z,1013.20
2018-12-30T04:03:35.138Z,1013.19
2018-12-30T04:04:33.290Z,1013.21
2018-12-30T04:05:35.123Z,1013.19
2018-12-30T04:06:36.124Z,1013.23
2018-12-30T04:07:35.153Z,1013.26
2018-12-30T04:08:35.129Z,1013.18
2018-12-30T04:09:35.123Z,1013.27
2018-12-30T04:10:33.228Z,1013.20
2018-12-30T04:11:35.122Z,1013.21
2018-12-30T04:12:35.129Z,1013.28
2018-12-30T04:13:35.154Z,1013.23
2018-12-30T04:14:35.124Z,1013.26
2018-12-30T04:15:35.131Z,1013.20
2018-12-30T04:16:35.122Z,1013.14
2018-12-30T04:17:35.183Z,1013.35
2018-12-30T04:18:35.137Z,1013.27
2018-12-30T04:19:35.157Z,1013.31
2018-12-30T04:20:34.613Z,1013.27
2018-12-30T04:21:34.622Z,1013.35
2018-12-30T04:22:34.626Z,1013.28
2018-12-30T04:23:34.635Z,1013.37
2018-12-30T04:24:34.634Z,1013.38
2018-12-30T04:25:34.641Z,1013.39
2018-12-30T04:26:34.629Z,1013.39
2018-12-30T04:27:34.627Z,1013.38
2018-12-30T04:28:34.638Z,1013.37
2018-12-30T04:29:34.624Z,1013.46
2018-12-30T04:30:34.624Z,1013.46
2018-12-30T04:31:34.646Z,1013.46
2018-12-30T04:32:34.622Z,1013.52
2018-12-30T04:33:34.631Z,1013.45
2018-12-30T04:34:34.624Z,1013.48
2018-12-30T04:35:34.629Z,1013.45
2018-12-30T04:36:34.623Z,1013.50
2018-12-30T04:37:34.645Z,1013.55
2018-12-30T04:38:34.635Z,1013.66
2018-12-30T04:39:34.623Z,1013.64
2018-12-30T04:40:34.624Z,1013.70
2018-12-30T04:41:34.621Z,1013.78
2018-12-30T04:42:34.622Z,1013.61
2018-12-30T04:43:34.656Z,1013.66
2018-12-30T04:44:34.636Z,1013.68
2018-12-30T04:45:34.623Z,1013.75
2018-12-30T04:46:34.622Z,1013.78
2018-12-30T04:47:34.630Z,1013.76
2018-12-30T04:48:34.627Z,1013.81
2018-12-30T04:49:34.650Z,1013.80
2018-12-30T04:50:34.624Z,1013.82
2018-12-30T04:51:34.630Z,1013.86
2018-12-30T04:52:34.621Z,1013.82
2018-12-30T04:53:34.634Z,1013.89
2018-12-30T04:54:34.626Z,1013.90
2018-12-30T04:55:34.656Z,1013.86
2018-12-30T04:56:34.622Z,1013.94
2018-12-30T04:58:24.086Z,1013.95
2018-12-30T04:59:25.865Z,1014.05
2018-12-30T05:00:25.836Z,1013.95
2018-12-30T05:01:25.841Z,1013.88
2018-12-30T05:02:25.861Z,1013.98
2018-12-30T05:03:25.845Z,1013.98
2018-12-30T05:04:25.842Z,1013.99
2018-12-30T05:05:25.837Z,1014.02
2018-12-30T05:06:25.842Z,1013.99
2018-12-30T05:07:25.857Z,1014.06
2018-12-30T05:08:25.850Z,1014.07
2018-12-30T05:09:25.839Z,1014.03
2018-12-30T05:10:25.838Z,1013.99
2018-12-30T05:11:25.838Z,1014.00
2018-12-30T05:12:25.839Z,1013.95
2018-12-30T05:13:25.872Z,1013.94
2018-12-30T05:14:25.839Z,1013.99
2018-12-30T05:15:24.840Z,1013.93
2018-12-30T05:16:25.853Z,1014.00
2018-12-30T05:17:25.836Z,1013.97
2018-12-30T05:18:25.344Z,1013.99
2018-12-30T05:19:25.374Z,1014.05
2018-12-30T05:20:25.338Z,1014.03
2018-12-30T05:21:24.339Z,1014.05
2018-12-30T05:22:25.338Z,1014.02
2018-12-30T05:23:25.351Z,1014.07
2018-12-30T05:24:25.340Z,1014.06
2018-12-30T05:25:25.356Z,1014.08
2018-12-30T05:26:25.336Z,1014.13
2018-12-30T05:27:23.753Z,1014.09
2018-12-30T05:28:25.352Z,1014.08
2018-12-30T05:29:25.339Z,1014.19
2018-12-30T05:30:25.348Z,1014.23
2018-12-30T05:31:25.329Z,1014.18
2018-12-30T05:32:25.340Z,1014.35
2018-12-30T05:33:23.721Z,1014.23
2018-12-30T05:34:25.338Z,1014.22
2018-12-30T05:35:25.337Z,1014.25
2018-12-30T05:36:25.353Z,1014.26
2018-12-30T05:37:25.352Z,1014.33
2018-12-30T05:38:25.338Z,1014.37
2018-12-30T05:39:25.337Z,1014.42
2018-12-30T05:40:25.338Z,1014.46
2018-12-30T05:41:25.336Z,1014.49
2018-12-30T05:42:25.366Z,1014.45
2018-12-30T05:43:25.338Z,1014.45
2018-12-30T05:44:25.326Z,1014.50
2018-12-30T05:45:25.340Z,1014.58
2018-12-30T05:46:25.337Z,1014.51
2018-12-30T05:47:25.349Z,1014.58
2018-12-30T05:48:25.373Z,1014.61
2018-12-30T05:49:25.336Z,1014.58
2018-12-30T05:50:25.339Z,1014.59
2018-12-30T05:51:25.335Z,1014.55
2018-12-30T05:52:25.348Z,1014.66
2018-12-30T05:53:24.477Z,1014.66
2018-12-30T05:54:25.425Z,1014.67
2018-12-30T05:55:25.338Z,1014.67
2018-12-30T05:56:25.336Z,1014.64
2018-12-30T05:57:25.346Z,1014.70
2018-12-30T05:58:25.346Z,1014.75
2018-12-30T05:59:25.341Z,1014.73
2018-12-30T06:00:25.353Z,1014.65
2018-12-30T06:01:25.337Z,1014.64
2018-12-30T06:02:25.346Z,1014.79
2018-12-30T06:03:25.337Z,1014.77
2018-12-30T06:04:25.324Z,1014.68
2018-12-30T06:05:25.337Z,1014.76
2018-12-30T06:06:24.358Z,1014.73
2018-12-30T06:07:24.846Z,1014.57
2018-12-30T06:08:24.174Z,1014.62
2018-12-30T06:09:24.834Z,1014.63
2018-12-30T06:10:24.834Z,1014.72
2018-12-30T06:11:24.833Z,1014.75
2018-12-30T06:12:24.865Z,1014.72
2018-12-30T06:13:24.843Z,1014.64
2018-12-30T06:14:24.838Z,1014.74
2018-12-30T06:15:24.833Z,1014.71
2018-12-30T06:16:24.837Z,1014.67
2018-12-30T06:17:24.839Z,1014.68
2018-12-30T06:18:24.864Z,1014.69
2018-12-30T06:19:24.837Z,1014.74
2018-12-30T06:20:24.833Z,1014.80
2018-12-30T06:21:24.833Z,1014.82
2018-12-30T06:22:25.074Z,1014.80
2018-12-30T06:23:24.849Z,1014.76
2018-12-30T06:24:24.843Z,1014.86
2018-12-30T06:25:24.862Z,1014.87
2018-12-30T06:26:24.833Z,1014.85
2018-12-30T06:27:24.834Z,1014.92
2018-12-30T06:28:24.861Z,1014.95
2018-12-30T06:29:24.833Z,1014.92
2018-12-30T06:30:24.833Z,1014.88
2018-12-30T06:31:24.834Z,1014.85
2018-12-30T06:32:24.837Z,1014.93
2018-12-30T06:33:24.876Z,1015.02
2018-12-30T06:34:24.833Z,1015.11
2018-12-30T06:35:24.837Z,1015.04
2018-12-30T06:36:24.839Z,1015.05
2018-12-30T06:37:24.833Z,1015.07
2018-12-30T06:38:24.847Z,1015.20
2018-12-30T06:39:24.857Z,1015.15
2018-12-30T06:40:24.836Z,1015.12
2018-12-30T06:41:24.834Z,1015.24
2018-12-30T06:42:24.905Z,1015.21
2018-12-30T06:43:24.841Z,1015.16
2018-12-30T06:44:24.834Z,1015.16
2018-12-30T06:45:24.853Z,1015.18
2018-12-30T06:46:24.834Z,1015.22
2018-12-30T06:47:24.834Z,1015.20
2018-12-30T06:48:24.845Z,1015.18
2018-12-30T06:49:24.858Z,1015.31
2018-12-30T06:50:24.831Z,1015.24
2018-12-30T06:51:24.856Z,1015.20
2018-12-30T06:52:24.833Z,1015.13
2018-12-30T06:53:24.851Z,1015.22
2018-12-30T06:54:23.832Z,1015.18
2018-12-30T06:55:22.830Z,1015.15
2018-12-30T06:56:25.338Z,1015.33
2018-12-30T06:57:25.378Z,1015.21
2018-12-30T06:58:24.333Z,1015.23
2018-12-30T06:59:24.345Z,1015.27
2018-12-30T07:00:24.336Z,1015.25
2018-12-30T07:01:24.337Z,1015.22
2018-12-30T07:02:24.338Z,1015.31
2018-12-30T07:03:24.362Z,1015.26
2018-12-30T07:04:24.340Z,1015.27
2018-12-30T07:05:25.343Z,1015.18
2018-12-30T07:06:24.322Z,1015.23
2018-12-30T07:07:24.332Z,1015.22
2018-12-30T07:08:24.334Z,1015.26
2018-12-30T07:09:24.366Z,1015.25
2018-12-30T07:10:24.332Z,1015.25
2018-12-30T07:11:24.339Z,1015.24
2018-12-30T07:12:24.337Z,1015.25
2018-12-30T07:13:24.335Z,1015.23
2018-12-30T07:14:24.345Z,1015.26
2018-12-30T07:15:24.365Z,1015.34
2018-12-30T07:16:24.333Z,1015.39
2018-12-30T07:17:24.344Z,1015.42
2018-12-30T07:18:24.331Z,1015.44
2018-12-30T07:19:24.338Z,1015.38
2018-12-30T07:20:24.338Z,1015.33
2018-12-30T07:21:24.355Z,1015.31
2018-12-30T07:22:24.334Z,1015.26
2018-12-30T07:23:24.333Z,1015.38
2018-12-30T07:24:24.347Z,1015.36
2018-12-30T07:25:24.334Z,1015.33
2018-12-30T07:26:24.342Z,1015.33
2018-12-30T07:27:24.353Z,1015.41
2018-12-30T07:28:24.354Z,1015.25
2018-12-30T07:29:24.346Z,1015.26
2018-12-30T07:30:24.356Z,1015.31
2018-12-30T07:31:24.334Z,1015.33
2018-12-30T07:32:24.347Z,1015.36
2018-12-30T07:33:24.495Z,1015.33
2018-12-30T07:34:24.356Z,1015.30
2018-12-30T07:35:24.333Z,1015.38
2018-12-30T07:36:22.402Z,1015.34
2018-12-30T07:37:24.335Z,1015.31
2018-12-30T07:38:24.334Z,1015.32
2018-12-30T07:39:24.648Z,1015.42
2018-12-30T07:40:24.336Z,1015.42
2018-12-30T07:41:24.332Z,1015.37
2018-12-30T07:42:23.365Z,1015.29
2018-12-30T07:43:23.834Z,1015.29
2018-12-30T07:44:23.896Z,1015.35
2018-12-30T07:45:23.855Z,1015.31
2018-12-30T07:46:23.833Z,1015.35
2018-12-30T07:47:23.832Z,1015.41
2018-12-30T07:48:23.832Z,1015.41
2018-12-30T07:49:23.908Z,1015.32
2018-12-30T07:50:23.847Z,1015.29
2018-12-30T07:51:23.832Z,1015.41
2018-12-30T07:52:23.833Z,1015.41
2018-12-30T07:53:22.261Z,1015.44
2018-12-30T07:54:23.838Z,1015.50
2018-12-30T07:55:23.831Z,1015.36
2018-12-30T07:56:23.862Z,1015.32
2018-12-30T07:57:23.830Z,1015.42
2018-12-30T07:58:23.832Z,1015.40
2018-12-30T07:59:23.843Z,1015.36
2018-12-30T08:00:23.830Z,1015.39
2018-12-30T08:01:23.835Z,1015.38
2018-12-30T08:02:23.860Z,1015.39
2018-12-30T08:03:23.832Z,1015.35
2018-12-30T08:04:23.846Z,1015.33
2018-12-30T08:05:23.833Z,1015.27
2018-12-30T08:06:24.820Z,1015.36
2018-12-30T08:07:23.833Z,1015.34
2018-12-30T08:08:23.853Z,1015.31
2018-12-30T08:09:23.846Z,1015.33
2018-12-30T08:10:23.904Z,1015.38
2018-12-30T08:11:23.841Z,1015.33
2018-12-30T08:12:23.838Z,1015.33
2018-12-30T08:13:23.832Z,1015.32
2018-12-30T08:14:23.863Z,1015.44
2018-12-30T08:15:23.832Z,1015.34
2018-12-30T08:16:23.834Z,1015.42
2018-12-30T08:17:23.831Z,1015.42
2018-12-30T08:18:23.830Z,1015.45
2018-12-30T08:19:23.847Z,1015.45
2018-12-30T08:20:23.861Z,1015.49
2018-12-30T08:21:23.837Z,1015.37
2018-12-30T08:22:23.830Z,1015.43
2018-12-30T08:23:23.852Z,1015.38
2018-12-30T08:24:23.842Z,1015.39
2018-12-30T08:25:23.830Z,1015.37
2018-12-30T08:26:23.841Z,1015.30
2018-12-30T08:27:23.830Z,1015.39
2018-12-30T08:28:25.183Z,1015.44
2018-12-30T08:29:23.845Z,1015.37
2018-12-30T08:30:23.332Z,1015.43
2018-12-30T08:31:23.347Z,1015.46
2018-12-30T08:32:23.330Z,1015.48
2018-12-30T08:33:23.333Z,1015.53
2018-12-30T08:34:23.383Z,1015.52
2018-12-30T08:35:23.332Z,1015.61
2018-12-30T08:36:23.372Z,1015.59
2018-12-30T08:37:23.357Z,1015.63
2018-12-30T08:38:23.379Z,1015.64
2018-12-30T08:39:23.347Z,1015.69
2018-12-30T08:40:23.331Z,1015.68
2018-12-30T08:41:23.332Z,1015.62
2018-12-30T08:42:23.332Z,1015.59
2018-12-30T08:43:23.358Z,1015.63
2018-12-30T08:44:23.339Z,1015.52
2018-12-30T08:45:23.329Z,1015.61
2018-12-30T08:46:23.331Z,1015.58
2018-12-30T08:47:23.332Z,1015.61
2018-12-30T08:48:23.333Z,1015.63
2018-12-30T08:49:23.375Z,1015.65
2018-12-30T08:50:23.332Z,1015.58
2018-12-30T08:51:23.329Z,1015.67
2018-12-30T08:52:23.329Z,1015.66
2018-12-30T08:53:29.362Z,1015.63
2018-12-30T08:54:24.342Z,1015.69
2018-12-30T08:55:23.352Z,1015.73
2018-12-30T08:56:23.335Z,1015.70
2018-12-30T08:57:23.329Z,1015.73
2018-12-30T08:58:23.329Z,1015.78
2018-12-30T08:59:23.340Z,1015.80
2018-12-30T09:00:23.331Z,1015.77
2018-12-30T09:01:28.239Z,1015.85
2018-12-30T09:02:24.336Z,1015.77
2018-12-30T09:03:23.331Z,1015.71
2018-12-30T09:04:23.344Z,1015.72
2018-12-30T09:05:23.319Z,1015.62
2018-12-30T09:06:23.331Z,1015.53
2018-12-30T09:07:23.370Z,1015.51
2018-12-30T09:08:23.331Z,1015.57
2018-12-30T09:09:23.354Z,1015.51
2018-12-30T09:10:23.331Z,1015.45
2018-12-30T09:11:23.329Z,1015.41
2018-12-30T09:12:23.332Z,1015.43
2018-12-30T09:13:23.358Z,1015.42
2018-12-30T09:14:23.346Z,1015.41
2018-12-30T09:15:23.335Z,1015.48
2018-12-30T09:16:23.335Z,1015.51
2018-12-30T09:17:23.335Z,1015.58
2018-12-30T09:18:22.837Z,1015.64
2018-12-30T09:19:22.868Z,1015.64
2018-12-30T09:20:22.832Z,1015.68
2018-12-30T09:21:22.831Z,1015.62
2018-12-30T09:22:22.437Z,1015.63
2018-12-30T09:23:22.842Z,1015.69
2018-12-30T09:24:22.837Z,1015.64
2018-12-30T09:25:22.861Z,1015.57
2018-12-30T09:26:22.832Z,1015.60
2018-12-30T09:27:22.828Z,1015.51
2018-12-30T09:28:21.229Z,1015.56
2018-12-30T09:29:22.842Z,1015.57
2018-12-30T09:30:22.829Z,1015.67
2018-12-30T09:31:22.850Z,1015.65
2018-12-30T09:32:22.829Z,1015.70
2018-12-30T09:33:22.829Z,1015.67
2018-12-30T09:34:21.201Z,1015.69
2018-12-30T09:35:22.832Z,1015.72
2018-12-30T09:36:22.831Z,1015.76
2018-12-30T09:37:22.857Z,1015.73
2018-12-30T09:38:22.830Z,1015.67
2018-12-30T09:39:22.831Z,1015.73
2018-12-30T09:40:22.846Z,1015.78
2018-12-30T09:41:22.834Z,1015.79
2018-12-30T09:42:22.833Z,1015.82
2018-12-30T09:43:22.865Z,1015.86
2018-12-30T09:44:23.840Z,1015.82
2018-12-30T09:45:22.846Z,1015.85
2018-12-30T09:46:22.894Z,1015.90
2018-12-30T09:47:22.830Z,1015.95
2018-12-30T09:48:22.830Z,1015.86
2018-12-30T09:49:22.853Z,1015.83
2018-12-30T09:50:22.844Z,1015.87
2018-12-30T09:51:22.832Z,1015.90
2018-12-30T09:52:22.830Z,1015.90
2018-12-30T09:53:22.839Z,1015.92
2018-12-30T09:54:22.831Z,1015.88
2018-12-30T09:55:23.234Z,1015.93
2018-12-30T09:56:22.845Z,1015.88
2018-12-30T09:57:20.919Z,1015.93
2018-12-30T09:58:23.866Z,1015.97
2018-12-30T09:59:22.828Z,1015.95
2018-12-30T10:00:22.848Z,1016.04
2018-12-30T10:01:22.853Z,1015.95
2018-12-30T10:02:22.829Z,1016.02
2018-12-30T10:03:22.829Z,1016.03
2018-12-30T10:04:22.832Z,1016.01
2018-12-30T10:05:22.338Z,1016.05
2018-12-30T10:06:22.410Z,1016.08
2018-12-30T10:07:22.329Z,1016.06
2018-12-30T10:08:22.342Z,1016.09
2018-12-30T10:09:22.396Z,1016.10
2018-12-30T10:10:22.385Z,1016.15
2018-12-30T10:11:22.318Z,1016.11
2018-12-30T10:12:23.382Z,1016.16
2018-12-30T10:13:22.331Z,1016.22
2018-12-30T10:14:22.339Z,1016.27
2018-12-30T10:15:22.350Z,1016.13
2018-12-30T10:16:22.341Z,1016.14
2018-12-30T10:17:22.331Z,1016.10
2018-12-30T10:18:23.370Z,1016.11
2018-12-30T10:19:22.352Z,1016.09
2018-12-30T10:20:20.716Z,1016.12
2018-12-30T10:21:22.341Z,1016.15
2018-12-30T10:22:22.330Z,1016.18
2018-12-30T10:23:22.331Z,1016.09
2018-12-30T10:24:23.376Z,1016.09
2018-12-30T10:25:22.338Z,1015.99
2018-12-30T10:26:20.653Z,1016.02
2018-12-30T10:27:22.360Z,1016.06
2018-12-30T10:28:22.341Z,1016.02
2018-12-30T10:29:22.337Z,1016.02
2018-12-30T10:30:22.372Z,1016.03
2018-12-30T10:31:22.333Z,1015.95
2018-12-30T10:32:22.332Z,1015.96
2018-12-30T10:33:22.321Z,1015.90
2018-12-30T10:34:22.332Z,1015.83
2018-12-30T10:35:22.373Z,1015.83
2018-12-30T10:36:22.345Z,1015.83
2018-12-30T10:37:22.328Z,1015.87
2018-12-30T10:38:22.327Z,1015.79
2018-12-30T10:39:22.331Z,1015.80
2018-12-30T10:40:22.334Z,1015.76
2018-12-30T10:41:22.328Z,1015.76
2018-12-30T10:42:22.344Z,1015.79
2018-12-30T10:43:22.330Z,1015.83
2018-12-30T10:44:22.328Z,1015.84
2018-12-30T10:45:22.340Z,1015.82
2018-12-30T10:46:22.330Z,1015.84
2018-12-30T10:47:22.327Z,1015.89
2018-12-30T10:48:22.354Z,1015.86
2018-12-30T10:49:22.327Z,1015.87
2018-12-30T10:50:22.334Z,1015.75
2018-12-30T10:51:22.340Z,1015.78
2018-12-30T10:52:21.828Z,1015.80
2018-12-30T10:53:21.831Z,1015.87
2018-12-30T10:54:21.859Z,1015.89
2018-12-30T10:55:20.344Z,1015.96
2018-12-30T10:56:21.827Z,1016.05
2018-12-30T10:57:21.830Z,1015.94
2018-12-30T10:58:21.832Z,1015.98
2018-12-30T10:59:21.828Z,1015.90
2018-12-30T11:00:21.852Z,1015.90
2018-12-30T11:01:21.841Z,1015.93
2018-12-30T11:02:21.279Z,1015.94
2018-12-30T11:03:21.837Z,1015.86
2018-12-30T11:04:21.864Z,1015.84
2018-12-30T11:05:21.841Z,1015.86
2018-12-30T11:06:21.830Z,1015.83
2018-12-30T11:07:21.904Z,1015.83
2018-12-30T11:08:21.818Z,1015.87
2018-12-30T11:09:22.125Z,1015.88
2018-12-30T11:10:21.842Z,1015.87
2018-12-30T11:11:21.849Z,1015.88
2018-12-30T11:12:21.893Z,1015.94
2018-12-30T11:13:21.832Z,1015.94
2018-12-30T11:14:21.842Z,1015.86
2018-12-30T11:15:21.868Z,1015.90
2018-12-30T11:16:21.828Z,1015.87
2018-12-30T11:17:21.836Z,1015.81
2018-12-30T11:18:21.845Z,1015.82
2018-12-30T11:19:21.833Z,1015.88
2018-12-30T11:20:21.899Z,1015.88
2018-12-30T11:21:21.833Z,1015.79
2018-12-30T11:22:21.915Z,1015.79
2018-12-30T11:23:21.863Z,1015.84
2018-12-30T11:24:21.840Z,1015.84
2018-12-30T11:25:21.846Z,1015.85
2018-12-30T11:26:21.860Z,1015.89
2018-12-30T11:27:22.076Z,1015.85
2018-12-30T11:28:21.836Z,1015.78
2018-12-30T11:29:21.832Z,1015.78
2018-12-30T11:30:21.860Z,1015.85
2018-12-30T11:31:21.835Z,1015.76
2018-12-30T11:32:21.844Z,1015.82
2018-12-30T11:33:21.874Z,1015.78
2018-12-30T11:34:21.835Z,1015.66
2018-12-30T11:35:21.849Z,1015.69
2018-12-30T11:36:19.864Z,1015.78
2018-12-30T11:37:21.847Z,1015.77
2018-12-30T11:38:22.084Z,1015.67
2018-12-30T11:39:21.338Z,1015.72
2018-12-30T11:40:21.341Z,1015.63
2018-12-30T11:41:21.333Z,1015.58
2018-12-30T11:42:21.331Z,1015.62
2018-12-30T11:43:21.428Z,1015.51
2018-12-30T11:44:21.361Z,1015.57
2018-12-30T11:45:30.459Z,1015.63
2018-12-30T11:46:28.308Z,1015.60
2018-12-30T11:47:21.737Z,1015.69
2018-12-30T11:48:21.498Z,1015.71
2018-12-30T11:49:21.500Z,1015.63
2018-12-30T11:50:21.507Z,1015.70
2018-12-30T11:51:21.509Z,1015.71
2018-12-30T11:52:21.537Z,1015.72
2018-12-30T11:53:21.492Z,1015.64
2018-12-30T11:54:21.498Z,1015.66
2018-12-30T11:55:21.553Z,1015.64
2018-12-30T11:56:21.499Z,1015.67
2018-12-30T11:57:21.494Z,1015.67
2018-12-30T11:58:21.500Z,1015.68
2018-12-30T11:59:21.495Z,1015.75
2018-12-30T12:00:21.556Z,1015.70
2018-12-30T12:01:21.500Z,1015.73
2018-12-30T12:02:24.173Z,1015.63
2018-12-30T12:03:21.494Z,1015.65
2018-12-30T12:04:21.500Z,1015.65
2018-12-30T12:05:21.505Z,1015.64
2018-12-30T12:06:21.541Z,1015.66
2018-12-30T12:07:21.496Z,1015.58